Time;durP1;ratioP1;P1;durP2;ratioP2;P2;SDS_P1;SDS_P2;PMS_P1;PMS_P2;Temp;Humidity;BMP_temperature;BMP_pressure;BME280_temperature;BME280_humidity;BME280_pressure;Samples;Min_cycle;Max_cycle;Signal;HPM_P1;HPM_P2
2022/07/25 00:00:48;;;;;;;7.03;6.25;;;21.80;53.00;;;;;;4963922;28;20090;-70
2022/07/25 00:03:13;;;;;;;7.40;6.20;;;21.70;53.20;;;;;;4959492;28;20179;-70
2022/07/25 00:05:40;;;;;;;6.72;6.03;;;21.70;53.20;;;;;;4962176;28;20109;-70
2022/07/25 00:08:06;;;;;;;6.22;5.60;;;21.70;53.40;;;;;;4964972;28;20488;-70
2022/07/25 00:10:31;;;;;;;7.80;6.13;;;21.60;53.50;;;;;;4959925;28;20101;-70
2022/07/25 00:12:57;;;;;;;8.68;6.15;;;21.60;53.60;;;;;;4975313;28;20812;-73
2022/07/25 00:15:22;;;;;;;8.88;6.25;;;21.60;53.80;;;;;;4965734;28;20033;-71
2022/07/25 00:17:48;;;;;;;6.82;5.88;;;21.50;53.80;;;;;;4972327;28;20038;-70
2022/07/25 00:20:13;;;;;;;7.18;6.07;;;21.40;53.90;;;;;;4944061;28;20058;-72
2022/07/25 00:22:39;;;;;;;6.93;5.50;;;21.40;54.00;;;;;;4976005;28;20042;-70
2022/07/25 00:25:05;;;;;;;6.93;6.25;;;21.40;54.20;;;;;;4946200;28;20113;-70
2022/07/25 00:27:30;;;;;;;6.57;5.25;;;21.30;54.20;;;;;;4942115;28;20093;-70
2022/07/25 00:29:56;;;;;;;6.32;5.72;;;21.30;54.30;;;;;;4955077;28;20043;-70
2022/07/25 00:32:21;;;;;;;8.50;6.38;;;21.30;54.40;;;;;;4946654;28;20035;-70
2022/07/25 00:34:47;;;;;;;7.57;5.80;;;21.20;54.60;;;;;;4950644;28;20039;-70
2022/07/25 00:37:12;;;;;;;6.68;5.97;;;21.20;54.70;;;;;;4966374;28;20107;-70
2022/07/25 00:39:38;;;;;;;6.57;5.88;;;21.10;54.70;;;;;;4950851;28;20110;-70
2022/07/25 00:42:04;;;;;;;9.32;5.80;;;21.10;54.80;;;;;;4947392;28;20027;-70
2022/07/25 00:44:30;;;;;;;6.50;5.80;;;21.10;55.00;;;;;;4917805;28;20035;-71
2022/07/25 00:46:56;;;;;;;6.57;5.90;;;21.00;55.10;;;;;;4934940;28;20043;-70
2022/07/25 00:49:22;;;;;;;7.55;5.85;;;21.00;55.20;;;;;;4945416;28;20142;-70
2022/07/25 00:51:48;;;;;;;9.15;5.82;;;21.00;55.30;;;;;;4960013;28;20735;-70
2022/07/25 00:54:14;;;;;;;7.13;6.00;;;20.90;55.50;;;;;;4952168;28;20117;-70
2022/07/25 00:56:40;;;;;;;6.90;6.20;;;20.90;55.50;;;;;;4943969;28;20212;-70
2022/07/25 00:59:05;;;;;;;7.65;6.63;;;20.90;55.70;;;;;;4958156;28;20062;-70
2022/07/25 01:01:31;;;;;;;12.43;6.45;;;20.80;55.80;;;;;;4934207;28;20038;-70
2022/07/25 01:03:56;;;;;;;8.90;5.88;;;20.80;55.90;;;;;;4958445;28;20043;-71
2022/07/25 01:06:22;;;;;;;6.53;5.90;;;20.80;56.00;;;;;;4951676;28;20038;-69
2022/07/25 01:08:48;;;;;;;7.88;6.50;;;20.70;56.00;;;;;;4943812;28;20634;-70
2022/07/25 01:11:13;;;;;;;8.93;6.20;;;20.70;56.10;;;;;;4934373;28;20033;-70
2022/07/25 01:13:39;;;;;;;7.47;5.95;;;20.70;56.20;;;;;;4954592;28;20039;-71
2022/07/25 01:16:05;;;;;;;7.55;6.82;;;20.60;56.20;;;;;;4964018;28;20674;-70
2022/07/25 01:18:30;;;;;;;9.60;6.60;;;20.60;56.40;;;;;;4942609;28;20042;-70
2022/07/25 01:20:56;;;;;;;10.82;5.78;;;20.60;56.50;;;;;;4961163;28;20031;-70
2022/07/25 01:23:21;;;;;;;8.27;6.22;;;20.50;56.60;;;;;;4944920;28;20444;-70
2022/07/25 01:25:47;;;;;;;12.50;6.43;;;20.50;56.70;;;;;;4976513;28;20027;-73
2022/07/25 01:28:12;;;;;;;8.48;5.97;;;20.50;56.70;;;;;;4946540;28;20035;-70
2022/07/25 01:30:38;;;;;;;7.85;6.18;;;20.40;56.90;;;;;;4966842;28;20123;-71
2022/07/25 01:33:03;;;;;;;8.48;6.43;;;20.40;57.00;;;;;;4940170;28;20058;-70
2022/07/25 01:35:29;;;;;;;7.90;6.60;;;20.40;57.10;;;;;;4954003;28;20407;-70
2022/07/25 01:37:55;;;;;;;8.48;6.30;;;20.40;57.20;;;;;;4980460;28;20039;-70
2022/07/25 01:40:20;;;;;;;7.55;6.47;;;20.30;57.20;;;;;;4950076;28;20045;-71
2022/07/25 01:42:46;;;;;;;7.47;6.68;;;20.30;57.40;;;;;;4953332;28;20042;-71
2022/07/25 01:45:12;;;;;;;7.93;6.35;;;20.30;57.50;;;;;;4958222;28;20034;-70
2022/07/25 01:47:37;;;;;;;7.50;5.47;;;20.30;57.50;;;;;;4938512;28;20126;-70
2022/07/25 01:50:03;;;;;;;7.47;6.13;;;20.20;57.60;;;;;;4971763;28;20041;-70
2022/07/25 01:52:29;;;;;;;7.07;6.38;;;20.20;57.70;;;;;;4979949;28;20046;-70
2022/07/25 01:54:55;;;;;;;9.95;6.32;;;20.20;57.90;;;;;;4970185;28;20037;-70
2022/07/25 01:57:20;;;;;;;6.70;6.00;;;20.10;58.00;;;;;;4954735;28;20097;-70
2022/07/25 01:59:46;;;;;;;7.43;6.40;;;20.10;58.00;;;;;;4957507;28;20114;-70
2022/07/25 02:02:11;;;;;;;8.85;6.28;;;20.10;58.00;;;;;;4943327;28;20050;-70
2022/07/25 02:04:37;;;;;;;7.78;6.32;;;20.10;58.10;;;;;;4960634;28;20041;-69
2022/07/25 02:07:02;;;;;;;9.02;6.18;;;20.00;58.20;;;;;;4955620;28;20040;-70
2022/07/25 02:09:28;;;;;;;11.30;6.40;;;20.00;58.30;;;;;;4961094;28;20790;-70
2022/07/25 02:11:53;;;;;;;11.57;6.57;;;20.00;58.50;;;;;;4959976;28;20027;-70
2022/07/25 02:14:19;;;;;;;12.57;6.82;;;19.90;58.50;;;;;;4975261;28;20057;-70
2022/07/25 02:16:44;;;;;;;7.10;5.93;;;19.90;58.60;;;;;;4964126;28;20042;-69
2022/07/25 02:19:10;;;;;;;7.93;6.32;;;19.90;58.70;;;;;;4968577;28;20042;-71
2022/07/25 02:21:35;;;;;;;8.07;6.00;;;19.90;58.70;;;;;;4990380;28;20118;-71
2022/07/25 02:24:01;;;;;;;7.65;6.82;;;19.80;58.80;;;;;;4961030;28;20039;-69
2022/07/25 02:26:27;;;;;;;8.07;6.75;;;19.80;58.80;;;;;;4945367;28;20063;-73
2022/07/25 02:28:52;;;;;;;9.27;6.78;;;19.70;58.80;;;;;;4976577;28;20389;-69
2022/07/25 02:31:18;;;;;;;7.97;6.55;;;19.70;58.90;;;;;;4955885;28;20043;-71
2022/07/25 02:33:44;;;;;;;8.13;6.63;;;19.70;59.00;;;;;;4958095;28;20034;-70
2022/07/25 02:36:10;;;;;;;9.05;6.78;;;19.70;59.10;;;;;;4958014;28;20031;-71
2022/07/25 02:38:36;;;;;;;10.45;6.30;;;19.60;59.10;;;;;;4948030;28;20069;-70
2022/07/25 02:41:01;;;;;;;9.48;6.40;;;19.60;59.20;;;;;;4990583;28;20162;-70
2022/07/25 02:43:27;;;;;;;7.50;6.72;;;19.60;59.30;;;;;;4960583;28;20538;-70
2022/07/25 02:45:52;;;;;;;8.55;6.70;;;19.50;59.40;;;;;;4972602;28;20492;-72
2022/07/25 02:48:18;;;;;;;10.52;6.30;;;19.50;59.40;;;;;;4952385;28;20046;-71
2022/07/25 02:50:43;;;;;;;8.55;6.60;;;19.50;59.50;;;;;;4990841;28;20046;-70
2022/07/25 02:53:09;;;;;;;7.97;6.97;;;19.50;59.60;;;;;;4956398;28;20041;-71
2022/07/25 02:55:34;;;;;;;8.15;6.68;;;19.40;59.60;;;;;;4959338;28;20050;-70
2022/07/25 02:58:00;;;;;;;11.57;7.43;;;19.40;59.80;;;;;;4965149;28;20030;-69
2022/07/25 03:00:26;;;;;;;8.52;6.70;;;19.40;60.00;;;;;;4960591;28;20031;-70
2022/07/25 03:02:51;;;;;;;8.80;6.70;;;19.30;60.00;;;;;;4968478;28;20041;-70
2022/07/25 03:05:17;;;;;;;7.65;6.85;;;19.30;60.20;;;;;;4969171;28;20677;-70
2022/07/25 03:07:43;;;;;;;8.50;7.10;;;19.30;60.30;;;;;;4960007;28;20046;-70
2022/07/25 03:10:09;;;;;;;8.25;6.78;;;19.20;60.30;;;;;;4971412;28;20183;-70
2022/07/25 03:12:34;;;;;;;9.23;6.47;;;19.20;60.60;;;;;;4952174;28;20125;-70
2022/07/25 03:15:00;;;;;;;8.15;6.15;;;19.20;60.60;;;;;;4966938;28;20957;-70
2022/07/25 03:17:27;;;;;;;6.78;6.07;;;19.20;60.70;;;;;;4963656;28;20558;-69
2022/07/25 03:19:55;;;;;;;9.95;6.65;;;19.20;60.80;;;;;;4942769;28;20111;-70
2022/07/25 03:22:21;;;;;;;8.55;6.47;;;19.20;61.00;;;;;;4937983;28;20078;-70
2022/07/25 03:24:47;;;;;;;7.82;7.03;;;19.10;60.90;;;;;;4968654;28;20066;-70
2022/07/25 03:27:12;;;;;;;7.07;6.25;;;19.10;61.00;;;;;;4979691;28;20106;-72
2022/07/25 03:29:38;;;;;;;7.50;6.70;;;19.10;61.10;;;;;;4938929;28;20096;-70
2022/07/25 03:32:04;;;;;;;7.97;6.40;;;19.00;61.20;;;;;;4959528;28;20732;-71
2022/07/25 03:34:30;;;;;;;10.57;8.75;;;19.00;61.20;;;;;;4967453;28;20030;-70
2022/07/25 03:36:55;;;;;;;11.45;9.40;;;19.00;61.30;;;;;;4932592;28;20043;-70
2022/07/25 03:39:21;;;;;;;14.77;10.07;;;18.90;61.30;;;;;;4934240;28;20042;-70
2022/07/25 03:41:46;;;;;;;16.90;11.23;;;18.90;61.40;;;;;;4955204;28;20035;-70
2022/07/25 03:44:12;;;;;;;17.17;12.80;;;18.90;61.50;;;;;;4971448;28;20047;-70
2022/07/25 03:46:38;;;;;;;21.90;15.43;;;18.90;61.60;;;;;;4942628;28;20085;-70
2022/07/25 03:49:03;;;;;;;21.50;15.40;;;18.80;61.60;;;;;;4971214;28;20046;-70
2022/07/25 03:51:29;;;;;;;22.17;15.98;;;18.80;61.70;;;;;;4957154;28;20101;-70
2022/07/25 03:54:07;;;;;;;20.30;14.45;;;18.80;61.80;;;;;;4970872;28;20392;-70
2022/07/25 03:56:43;;;;;;;19.10;14.57;;;18.80;61.90;;;;;;4953223;28;20105;-70
2022/07/25 03:59:10;;;;;;;18.42;12.75;;;18.70;62.20;;;;;;4946029;28;20054;-70
2022/07/25 04:01:36;;;;;;;19.77;13.85;;;18.70;62.00;;;;;;4953371;28;20043;-70
2022/07/25 04:04:02;;;;;;;21.33;15.52;;;18.70;62.20;;;;;;4924851;28;20415;-70
2022/07/25 04:06:27;;;;;;;22.77;15.18;;;18.70;62.20;;;;;;4957552;28;20042;-70
2022/07/25 04:08:53;;;;;;;19.95;14.20;;;18.70;62.30;;;;;;4961417;28;20044;-70
2022/07/25 04:11:19;;;;;;;19.45;13.48;;;18.70;62.40;;;;;;4936699;28;20046;-70
2022/07/25 04:13:45;;;;;;;13.07;10.70;;;18.60;62.50;;;;;;4961037;28;20038;-70
2022/07/25 04:16:10;;;;;;;16.60;10.85;;;18.60;62.70;;;;;;4964163;28;20073;-70
2022/07/25 04:18:36;;;;;;;16.85;11.07;;;18.60;62.70;;;;;;4952769;28;20520;-72
2022/07/25 04:21:02;;;;;;;15.18;11.85;;;18.60;62.80;;;;;;4948769;28;20761;-69
2022/07/25 04:23:27;;;;;;;16.27;11.32;;;18.60;62.90;;;;;;4972609;28;20031;-70
2022/07/25 04:25:54;;;;;;;17.02;10.55;;;18.60;63.10;;;;;;4978786;28;20042;-70
2022/07/25 04:28:19;;;;;;;15.45;10.35;;;18.50;63.10;;;;;;4936158;28;20046;-70
2022/07/25 04:30:45;;;;;;;13.63;9.20;;;18.50;63.20;;;;;;4964725;28;20038;-72
2022/07/25 04:33:11;;;;;;;12.75;9.75;;;18.50;63.30;;;;;;4962396;28;20645;-70
2022/07/25 04:35:37;;;;;;;12.10;9.00;;;18.50;63.50;;;;;;4961200;28;21768;-70
2022/07/25 04:38:02;;;;;;;10.82;8.77;;;18.50;63.60;;;;;;4957073;28;20037;-70
2022/07/25 04:40:28;;;;;;;11.40;8.98;;;18.50;63.70;;;;;;4962456;28;20161;-70
2022/07/25 04:42:53;;;;;;;12.90;8.75;;;18.50;63.70;;;;;;4975372;28;20034;-70
2022/07/25 04:45:19;;;;;;;11.15;8.45;;;18.50;63.80;;;;;;4958625;28;20038;-70
2022/07/25 04:47:44;;;;;;;10.38;8.05;;;18.50;64.70;;;;;;4960606;28;20031;-70
2022/07/25 04:50:10;;;;;;;14.05;8.18;;;18.50;64.00;;;;;;4967380;28;20030;-71
2022/07/25 04:52:36;;;;;;;9.93;8.18;;;18.50;64.00;;;;;;4962741;28;20063;-71
2022/07/25 04:55:02;;;;;;;11.73;8.93;;;18.50;64.10;;;;;;4956014;28;20054;-70
2022/07/25 04:57:28;;;;;;;10.73;8.80;;;18.50;64.20;;;;;;4955440;28;22972;-70
2022/07/25 04:59:54;;;;;;;12.63;8.80;;;18.60;64.50;;;;;;4952642;28;20031;-70
2022/07/25 05:02:19;;;;;;;10.15;8.40;;;18.50;64.70;;;;;;4953026;28;20818;-71
2022/07/25 05:04:45;;;;;;;9.82;8.55;;;18.60;65.00;;;;;;4973699;28;20034;-71
2022/07/25 05:07:10;;;;;;;10.73;8.38;;;18.60;64.90;;;;;;4982170;28;20034;-70
2022/07/25 05:09:36;;;;;;;12.82;9.10;;;18.60;64.90;;;;;;4977529;28;20126;-70
2022/07/25 05:12:01;;;;;;;12.73;8.32;;;18.60;65.20;;;;;;4973296;28;20030;-69
2022/07/25 05:14:27;;;;;;;11.30;8.80;;;18.60;65.30;;;;;;4940639;28;20038;-70
2022/07/25 05:16:52;;;;;;;11.20;8.68;;;18.70;65.40;;;;;;4977833;28;20117;-70
2022/07/25 05:19:18;;;;;;;13.27;8.90;;;18.70;65.60;;;;;;4926067;28;20177;-70
2022/07/25 05:21:43;;;;;;;9.18;7.90;;;18.70;65.60;;;;;;4964638;28;20110;-69
2022/07/25 05:24:09;;;;;;;10.77;8.73;;;18.80;65.80;;;;;;4958297;28;20031;-69
2022/07/25 05:26:34;;;;;;;10.13;8.23;;;18.80;65.90;;;;;;4959515;28;20148;-71
2022/07/25 05:29:00;;;;;;;11.90;8.90;;;18.80;65.80;;;;;;4948561;28;20451;-70
2022/07/25 05:31:25;;;;;;;14.82;9.35;;;18.80;65.60;;;;;;4971026;28;20097;-70
2022/07/25 05:33:51;;;;;;;15.70;9.65;;;18.90;66.00;;;;;;4954502;28;20500;-70
2022/07/25 05:36:17;;;;;;;12.63;9.27;;;19.00;66.10;;;;;;4981845;28;20035;-69
2022/07/25 05:38:42;;;;;;;13.40;9.10;;;19.00;66.30;;;;;;4953826;28;20054;-71
2022/07/25 05:41:08;;;;;;;13.70;8.75;;;19.00;66.00;;;;;;4955755;28;20064;-71
2022/07/25 05:43:33;;;;;;;15.00;8.27;;;19.10;66.20;;;;;;4969280;28;20046;-70
2022/07/25 05:46:00;;;;;;;15.65;8.23;;;19.10;66.20;;;;;;4979000;28;20053;-72
2022/07/25 05:48:26;;;;;;;12.15;8.88;;;19.20;66.00;;;;;;4964130;28;20037;-71
2022/07/25 05:50:52;;;;;;;12.45;8.68;;;19.30;66.00;;;;;;4984944;28;20403;-70
2022/07/25 05:53:17;;;;;;;12.57;9.00;;;19.30;66.00;;;;;;4965021;28;20069;-71
2022/07/25 05:55:43;;;;;;;16.77;9.65;;;19.40;66.00;;;;;;4941822;28;20459;-72
2022/07/25 05:58:08;;;;;;;11.07;8.40;;;19.50;66.10;;;;;;4964787;28;20035;-70
2022/07/25 06:00:34;;;;;;;11.77;8.80;;;19.60;66.00;;;;;;4942443;28;20571;-73
2022/07/25 06:03:00;;;;;;;14.18;10.20;;;19.60;65.90;;;;;;4948375;28;20740;-71
2022/07/25 06:05:25;;;;;;;13.65;10.20;;;19.70;65.70;;;;;;4966067;28;20039;-71
2022/07/25 06:07:51;;;;;;;12.38;8.45;;;19.80;65.70;;;;;;4981703;28;20042;-72
2022/07/25 06:10:17;;;;;;;14.88;9.20;;;19.80;65.40;;;;;;4940640;28;20041;-70
2022/07/25 06:12:42;;;;;;;11.95;9.07;;;19.90;65.30;;;;;;4944405;28;20045;-72
2022/07/25 06:15:08;;;;;;;14.57;8.32;;;20.00;65.20;;;;;;4960652;28;20947;-70
2022/07/25 06:17:33;;;;;;;12.77;8.93;;;20.10;65.00;;;;;;4966335;28;20114;-71
2022/07/25 06:19:59;;;;;;;15.27;9.02;;;20.20;64.90;;;;;;4927449;28;20436;-71
2022/07/25 06:22:25;;;;;;;11.80;8.60;;;20.30;64.70;;;;;;4990263;28;20041;-72
2022/07/25 06:24:50;;;;;;;10.10;8.50;;;20.40;64.50;;;;;;4970861;28;20088;-71
2022/07/25 06:27:16;;;;;;;12.02;7.75;;;20.50;64.40;;;;;;4959022;28;20647;-70
2022/07/25 06:29:41;;;;;;;15.10;8.13;;;20.70;64.20;;;;;;4945247;28;20049;-71
2022/07/25 06:32:07;;;;;;;19.77;9.52;;;20.70;64.00;;;;;;4948075;28;20547;-71
2022/07/25 06:34:32;;;;;;;14.18;8.43;;;20.90;63.90;;;;;;4962844;28;20503;-71
2022/07/25 06:36:58;;;;;;;16.55;8.10;;;21.00;63.60;;;;;;4953580;28;20045;-72
2022/07/25 06:39:24;;;;;;;14.48;7.72;;;21.10;63.30;;;;;;4971419;28;20101;-72
2022/07/25 06:41:50;;;;;;;9.77;7.32;;;21.30;63.10;;;;;;4971308;28;20097;-71
2022/07/25 06:44:15;;;;;;;11.52;7.20;;;21.40;62.80;;;;;;4946158;28;20056;-71
2022/07/25 06:46:41;;;;;;;13.95;7.70;;;21.60;62.60;;;;;;4968992;28;20058;-71
2022/07/25 06:49:06;;;;;;;12.50;7.68;;;21.80;62.40;;;;;;4968462;28;20034;-72
2022/07/25 06:51:32;;;;;;;15.07;7.18;;;21.90;62.00;;;;;;4948677;28;20124;-71
2022/07/25 06:53:58;;;;;;;13.10;7.43;;;22.00;61.60;;;;;;4957190;28;20048;-70
2022/07/25 06:56:23;;;;;;;9.05;7.45;;;22.20;61.30;;;;;;4948655;28;20050;-71
2022/07/25 06:58:49;;;;;;;13.43;7.70;;;22.40;61.00;;;;;;4972282;28;20303;-70
2022/07/25 07:01:14;;;;;;;10.95;7.80;;;22.50;60.60;;;;;;4952485;28;20035;-71
2022/07/25 07:03:40;;;;;;;10.95;7.05;;;22.70;60.30;;;;;;4977062;28;20101;-71
2022/07/25 07:06:07;;;;;;;11.40;7.15;;;22.90;59.90;;;;;;4955682;28;20061;-71
2022/07/25 07:08:33;;;;;;;11.13;6.95;;;23.00;60.40;;;;;;4939460;28;20133;-71
2022/07/25 07:10:58;;;;;;;11.45;6.85;;;23.30;59.40;;;;;;4973543;28;20661;-72
2022/07/25 07:13:24;;;;;;;9.32;6.85;;;23.40;59.10;;;;;;4963476;28;20042;-72
2022/07/25 07:15:50;;;;;;;12.27;7.30;;;23.60;58.80;;;;;;4987099;28;20043;-71
2022/07/25 07:18:16;;;;;;;10.63;7.32;;;23.80;58.50;;;;;;4960739;28;20039;-74
2022/07/25 07:20:42;;;;;;;7.82;7.03;;;24.00;58.20;;;;;;4969485;28;20038;-74
2022/07/25 07:23:08;;;;;;;11.35;6.82;;;24.20;58.00;;;;;;4975104;28;20126;-74
2022/07/25 07:25:33;;;;;;;9.27;6.95;;;24.40;57.70;;;;;;4949074;28;20094;-75
2022/07/25 07:27:59;;;;;;;7.80;6.85;;;24.60;57.30;;;;;;4962279;28;20580;-71
2022/07/25 07:30:24;;;;;;;8.13;6.75;;;24.80;56.90;;;;;;4964604;28;20035;-71
2022/07/25 07:32:50;;;;;;;9.75;7.70;;;25.00;56.50;;;;;;4962363;28;20050;-71
2022/07/25 07:35:17;;;;;;;7.20;6.50;;;25.20;56.20;;;;;;4964483;28;20042;-72
2022/07/25 07:37:43;;;;;;;9.43;6.93;;;25.40;55.90;;;;;;4969082;28;20038;-71
2022/07/25 07:40:10;;;;;;;8.75;6.70;;;25.60;55.60;;;;;;4924618;28;20038;-71
2022/07/25 07:42:43;;;;;;;7.60;6.80;;;25.80;55.30;;;;;;4942960;28;20671;-71
2022/07/25 07:45:16;;;;;;;9.55;7.32;;;26.00;55.10;;;;;;4939729;28;20039;-74
2022/07/25 07:47:41;;;;;;;8.88;7.10;;;26.20;54.70;;;;;;4948523;28;20569;-71
2022/07/25 07:50:07;;;;;;;7.55;6.72;;;26.40;54.40;;;;;;4953098;28;20042;-71
2022/07/25 07:52:33;;;;;;;8.23;6.90;;;26.60;54.10;;;;;;4957863;28;20307;-71
2022/07/25 07:57:42;;;;;;;7.70;6.90;;;27.10;53.50;;;;;;4956836;28;20045;-72
2022/07/25 08:00:09;;;;;;;7.47;6.70;;;27.30;53.20;;;;;;4965992;28;20039;-71
2022/07/25 08:02:48;;;;;;;9.00;7.25;;;27.50;52.90;;;;;;4967544;28;20100;-71
2022/07/25 08:05:27;;;;;;;7.80;6.72;;;27.80;52.50;;;;;;4958017;28;20037;-71
2022/07/25 08:07:53;;;;;;;7.97;7.05;;;28.00;52.00;;;;;;4978295;28;20061;-71
2022/07/25 08:10:25;;;;;;;7.85;6.80;;;28.20;51.90;;;;;;4974712;28;20076;-72
2022/07/25 08:12:51;;;;;;;10.23;7.13;;;28.40;51.40;;;;;;4957209;28;20117;-72
2022/07/25 08:15:17;;;;;;;8.02;6.82;;;28.60;51.00;;;;;;4958642;28;20237;-74
2022/07/25 08:17:43;;;;;;;8.80;6.65;;;28.80;50.60;;;;;;4984452;28;20085;-74
2022/07/25 08:20:09;;;;;;;8.43;6.93;;;29.10;50.40;;;;;;4983766;28;20038;-72
2022/07/25 08:22:39;;;;;;;11.32;7.60;;;29.30;50.10;;;;;;4937305;28;21250;-72
2022/07/25 08:25:06;;;;;;;8.73;7.05;;;29.50;49.70;;;;;;4962657;28;20049;-71
2022/07/25 08:27:31;;;;;;;8.23;7.38;;;29.70;49.40;;;;;;4996918;28;20573;-71
2022/07/25 08:29:59;;;;;;;7.70;7.00;;;29.90;49.00;;;;;;4989538;28;20026;-71
2022/07/25 08:32:26;;;;;;;9.77;7.50;;;30.10;48.60;;;;;;4962766;28;20052;-72
2022/07/25 08:34:52;;;;;;;8.65;6.68;;;30.40;48.40;;;;;;4970489;28;20027;-73
2022/07/25 08:37:17;;;;;;;13.43;6.88;;;30.50;48.00;;;;;;4976647;28;20025;-71
2022/07/25 08:39:43;;;;;;;7.38;6.68;;;30.80;47.90;;;;;;4977930;28;20027;-72
2022/07/25 08:42:09;;;;;;;8.15;7.32;;;31.00;47.60;;;;;;4983954;28;20057;-72
2022/07/25 08:44:35;;;;;;;10.45;6.90;;;31.20;47.10;;;;;;4983565;28;20065;-72
2022/07/25 08:47:00;;;;;;;8.35;6.50;;;31.40;46.80;;;;;;4958794;28;20030;-73
2022/07/25 08:49:26;;;;;;;7.18;6.50;;;31.60;46.40;;;;;;4949605;28;20045;-73
2022/07/25 08:51:52;;;;;;;9.02;6.72;;;31.80;46.00;;;;;;4975152;28;20041;-72
2022/07/25 08:54:17;;;;;;;13.55;7.00;;;32.00;45.60;;;;;;4976182;28;21002;-73
2022/07/25 08:56:43;;;;;;;8.30;7.13;;;32.20;45.30;;;;;;4970608;28;20120;-72
2022/07/25 08:59:09;;;;;;;7.78;6.57;;;32.40;45.00;;;;;;4965606;28;20520;-72
2022/07/25 09:01:34;;;;;;;7.45;6.70;;;32.60;44.70;;;;;;4965415;28;20044;-72
2022/07/25 09:04:01;;;;;;;8.10;6.70;;;32.80;44.30;;;;;;4972364;28;20141;-72
2022/07/25 09:06:27;;;;;;;7.10;6.40;;;33.00;43.90;;;;;;4975235;28;20027;-72
2022/07/25 09:08:57;;;;;;;8.30;6.95;;;33.20;43.50;;;;;;4959160;28;20055;-72
2022/07/25 09:11:30;;;;;;;9.50;6.82;;;33.40;42.80;;;;;;4986841;28;20058;-72
2022/07/25 09:13:57;;;;;;;8.63;6.97;;;33.60;42.70;;;;;;4973986;28;20048;-72
2022/07/25 09:16:35;;;;;;;7.82;6.28;;;33.80;42.50;;;;;;4941554;28;20049;-72
2022/07/25 09:19:13;;;;;;;9.10;6.55;;;34.00;41.80;;;;;;4969741;28;20077;-72
2022/07/25 09:21:40;;;;;;;6.78;6.10;;;34.20;41.60;;;;;;4971978;28;20046;-73
2022/07/25 09:24:10;;;;;;;10.88;6.47;;;34.40;41.50;;;;;;4964674;28;20039;-73
2022/07/25 09:26:43;;;;;;;8.30;6.47;;;34.60;41.00;;;;;;4962931;28;20046;-72
2022/07/25 09:29:20;;;;;;;7.40;6.43;;;34.90;40.40;;;;;;4957976;28;20042;-73
2022/07/25 09:31:46;;;;;;;7.47;6.40;;;35.00;39.90;;;;;;4919501;28;20550;-74
2022/07/25 09:34:12;;;;;;;6.00;5.50;;;35.30;39.70;;;;;;4955112;28;20047;-73
2022/07/25 09:36:53;;;;;;;8.05;6.13;;;35.40;39.00;;;;;;4973335;28;20039;-74
2022/07/25 09:39:19;;;;;;;7.45;5.78;;;35.60;37.80;;;;;;4994265;28;20046;-73
2022/07/25 09:41:44;;;;;;;6.97;6.00;;;35.80;38.30;;;;;;4985166;28;20863;-73
2022/07/25 09:44:28;;;;;;;6.72;6.05;;;35.90;37.90;;;;;;4957316;28;20043;-72
2022/07/25 09:46:53;;;;;;;7.13;6.05;;;36.10;36.90;;;;;;4949458;28;20477;-73
2022/07/25 09:49:19;;;;;;;6.47;5.85;;;36.20;37.20;;;;;;4968555;28;20039;-73
2022/07/25 09:51:44;;;;;;;7.85;5.80;;;36.30;36.90;;;;;;4959940;28;20043;-72
2022/07/25 09:54:10;;;;;;;8.40;6.07;;;36.50;36.50;;;;;;4941041;28;20050;-74
2022/07/25 09:56:36;;;;;;;7.10;6.35;;;36.70;36.30;;;;;;4980615;28;20046;-73
2022/07/25 09:59:02;;;;;;;11.80;6.30;;;36.80;36.10;;;;;;4993276;28;20525;-73
2022/07/25 10:01:41;;;;;;;9.38;6.18;;;36.80;35.80;;;;;;4986697;28;20122;-72
2022/07/25 10:04:09;;;;;;;11.07;6.25;;;37.00;35.50;;;;;;4951664;28;20035;-74
2022/07/25 10:07:10;;;;;;;7.93;6.10;;;37.10;35.40;;;;;;4976449;28;20056;-72
2022/07/25 10:09:49;;;;;;;7.93;5.70;;;37.30;34.60;;;;;;4938141;28;20194;-72
2022/07/25 10:12:19;;;;;;;6.88;6.18;;;37.40;34.40;;;;;;4961441;28;20039;-73
2022/07/25 10:15:03;;;;;;;6.10;5.53;;;37.60;34.70;;;;;;4974735;28;20058;-73
2022/07/25 10:17:29;;;;;;;12.07;5.80;;;37.70;33.60;;;;;;4945088;28;20296;-73
2022/07/25 10:19:54;;;;;;;7.10;5.30;;;37.80;34.00;;;;;;4968373;28;20834;-72
2022/07/25 10:22:20;;;;;;;6.18;5.20;;;37.80;33.80;;;;;;4969285;28;20566;-73
2022/07/25 10:24:46;;;;;;;5.65;5.15;;;37.90;33.50;;;;;;4978713;28;20045;-72
2022/07/25 10:27:14;;;;;;;5.70;4.95;;;38.00;33.10;;;;;;4959749;28;20091;-72
2022/07/25 10:29:40;;;;;;;5.95;5.38;;;38.00;32.60;;;;;;4960377;28;20129;-72
2022/07/25 10:32:11;;;;;;;5.68;4.93;;;38.10;32.30;;;;;;4971788;28;20030;-72
2022/07/25 10:34:37;;;;;;;6.60;5.22;;;38.10;32.10;;;;;;4986822;28;20045;-72
2022/07/25 10:37:17;;;;;;;5.57;5.00;;;38.20;32.00;;;;;;4971375;28;20046;-74
2022/07/25 10:39:43;;;;;;;5.50;4.82;;;38.30;31.30;;;;;;4977507;28;20034;-72
2022/07/25 10:42:12;;;;;;;8.20;5.43;;;38.40;31.70;;;;;;4952536;28;20046;-73
2022/07/25 10:44:46;;;;;;;9.55;5.88;;;38.50;31.30;;;;;;4986008;28;20031;-73
2022/07/25 10:47:12;;;;;;;6.88;5.65;;;38.60;30.90;;;;;;4956186;28;20137;-73
2022/07/25 10:49:40;;;;;;;6.75;5.38;;;38.80;31.00;;;;;;4960051;28;20038;-73
2022/07/25 10:52:06;;;;;;;6.78;5.00;;;38.90;30.70;;;;;;4970584;28;20049;-72
2022/07/25 10:54:36;;;;;;;5.35;4.68;;;39.00;30.50;;;;;;4949832;28;20035;-72
2022/07/25 10:57:03;;;;;;;5.53;5.03;;;39.10;30.10;;;;;;4942582;28;20134;-73
2022/07/25 10:59:33;;;;;;;5.60;4.93;;;39.10;30.00;;;;;;4972823;28;20066;-72
2022/07/25 11:02:00;;;;;;;;;;;39.20;29.80;;;;;;4957878;28;20046;-74
2022/07/25 11:04:26;;;;;;;5.72;5.15;;;39.30;30.00;;;;;;4954598;28;19918;-73
2022/07/25 11:07:05;;;;;;;5.85;4.68;;;39.40;30.00;;;;;;4984855;28;20035;-73
2022/07/25 11:09:31;;;;;;;6.55;4.85;;;39.50;29.80;;;;;;4956342;28;20038;-74
2022/07/25 11:11:57;;;;;;;4.95;4.28;;;39.60;29.40;;;;;;4962095;28;20511;-73
2022/07/25 11:14:24;;;;;;;5.32;4.82;;;39.70;29.20;;;;;;4948515;28;20138;-72
2022/07/25 11:16:52;;;;;;;7.38;4.90;;;39.80;29.00;;;;;;4960812;28;20030;-72
2022/07/25 11:19:19;;;;;;;5.28;4.78;;;39.80;28.80;;;;;;4939169;28;20045;-72
2022/07/25 11:21:49;;;;;;;7.40;4.45;;;39.80;28.60;;;;;;4963119;28;20038;-72
2022/07/25 11:24:14;;;;;;;5.65;5.05;;;39.90;28.50;;;;;;4979299;28;20587;-73
2022/07/25 11:26:46;;;;;;;5.72;4.30;;;39.90;28.40;;;;;;4966648;28;20050;-72
2022/07/25 11:29:19;;;;;;;6.35;4.07;;;39.90;28.20;;;;;;4992985;28;20038;-72
2022/07/25 11:32:11;;;;;;;4.78;4.18;;;40.00;28.60;;;;;;4949619;28;20030;-73
2022/07/25 11:34:51;;;;;;;6.20;4.60;;;40.10;27.60;;;;;;4955858;28;20104;-73
2022/07/25 11:37:17;;;;;;;4.72;4.32;;;40.20;27.90;;;;;;4989060;28;20113;-72
2022/07/25 11:39:43;;;;;;;4.93;4.53;;;40.20;28.10;;;;;;4946739;28;20039;-72
2022/07/25 11:42:15;;;;;;;4.55;4.15;;;40.10;27.90;;;;;;4972082;28;20052;-72
2022/07/25 11:44:48;;;;;;;4.40;3.80;;;40.10;27.80;;;;;;4975831;28;20177;-73
2022/07/25 11:47:27;;;;;;;5.00;4.50;;;40.10;27.70;;;;;;4969893;28;20023;-72
2022/07/25 11:49:54;;;;;;;5.38;4.10;;;40.10;27.40;;;;;;4943706;28;20042;-74
2022/07/25 11:52:46;;;;;;;4.90;4.45;;;40.20;27.70;;;;;;4955130;28;20047;-72
2022/07/25 11:55:13;;;;;;;4.70;4.30;;;40.20;27.30;;;;;;4941824;28;20121;-72
2022/07/25 11:57:45;;;;;;;4.32;3.92;;;40.20;27.60;;;;;;4968328;28;20031;-74
2022/07/25 12:00:18;;;;;;;4.85;3.72;;;40.20;27.30;;;;;;4944262;28;20096;-73
2022/07/25 12:02:44;;;;;;;5.15;4.22;;;40.20;27.30;;;;;;4959949;28;20065;-73
2022/07/25 12:05:11;;;;;;;4.88;4.43;;;40.20;27.30;;;;;;4966339;28;20554;-72
2022/07/25 12:07:44;;;;;;;4.90;4.40;;;40.30;27.30;;;;;;4982388;28;20061;-72
2022/07/25 12:10:14;;;;;;;4.45;4.05;;;40.40;27.30;;;;;;4977461;28;20034;-71
2022/07/25 12:12:49;;;;;;;3.97;3.67;;;40.50;27.20;;;;;;4972140;28;20027;-70
2022/07/25 12:15:21;;;;;;;4.32;3.92;;;40.60;27.20;;;;;;4980097;28;20429;-70
2022/07/25 12:17:46;;;;;;;3.95;3.55;;;40.70;27.00;;;;;;4960480;28;20034;-71
2022/07/25 12:20:13;;;;;;;4.50;3.88;;;40.80;27.00;;;;;;4975012;28;20125;-71
2022/07/25 12:22:39;;;;;;;4.05;3.75;;;40.80;26.80;;;;;;4953187;28;20488;-73
2022/07/25 12:25:05;;;;;;;4.25;3.85;;;40.80;26.70;;;;;;4959078;28;20037;-72
2022/07/25 12:27:31;;;;;;;4.07;3.75;;;40.80;26.50;;;;;;4996489;28;20092;-72
2022/07/25 12:29:57;;;;;;;3.45;3.20;;;40.70;26.40;;;;;;4985760;28;20034;-72
2022/07/25 12:32:22;;;;;;;4.80;3.47;;;40.70;26.40;;;;;;4978609;28;20057;-73
2022/07/25 12:34:48;;;;;;;4.45;3.60;;;40.80;26.50;;;;;;4982090;28;20083;-72
2022/07/25 12:37:13;;;;;;;4.68;3.88;;;40.80;26.30;;;;;;4977396;28;20077;-74
2022/07/25 12:39:39;;;;;;;3.78;3.47;;;40.70;26.20;;;;;;4964569;28;20541;-72
2022/07/25 12:42:04;;;;;;;5.65;4.10;;;40.70;26.20;;;;;;4978910;28;20173;-72
2022/07/25 12:44:30;;;;;;;4.50;3.40;;;40.70;26.10;;;;;;4963651;28;20084;-73